createdAt,value
2022-11-07T00:02:08.780Z,97460.09
2022-11-07T00:04:37.914Z,97465.44
2022-11-07T00:07:07.347Z,97467.59
2022-11-07T00:09:35.642Z,97475.31
2022-11-07T00:12:04.233Z,97476.63
2022-11-07T00:14:32.527Z,97472.59
2022-11-07T00:17:00.969Z,97478.22
2022-11-07T00:19:29.173Z,97473.16
2022-11-07T00:21:57.376Z,97479.44
2022-11-07T00:24:25.455Z,97483.56
2022-11-07T00:26:53.701Z,97484.59
2022-11-07T00:29:22.104Z,97495.13
2022-11-07T00:31:50.573Z,97494.47
2022-11-07T00:34:18.626Z,97497.22
2022-11-07T00:36:46.831Z,97493.00
2022-11-07T00:39:15.029Z,97495.31
2022-11-07T00:41:43.140Z,97498.00
2022-11-07T00:44:11.222Z,97503.34
2022-11-07T00:46:39.279Z,97513.09
2022-11-07T00:49:07.506Z,97511.91
2022-11-07T00:51:35.683Z,97513.03
2022-11-07T00:54:05.468Z,97518.38
2022-11-07T00:56:33.707Z,97512.84
2022-11-07T00:59:02.118Z,97509.59
2022-11-07T01:01:33.730Z,97514.38
2022-11-07T01:04:21.293Z,97516.69
2022-11-07T01:06:49.737Z,97512.00
2022-11-07T01:09:21.427Z,97509.03
2022-11-07T01:11:50.488Z,97505.72
2022-11-07T01:14:21.427Z,97503.50
2022-11-07T01:16:50.346Z,97513.00
2022-11-07T01:19:20.110Z,97515.47
2022-11-07T01:21:48.554Z,97507.84
2022-11-07T01:24:17.116Z,97509.88
2022-11-07T01:26:49.904Z,97503.84
2022-11-07T01:29:19.517Z,97511.25
2022-11-07T01:31:48.324Z,97514.94
2022-11-07T01:34:17.886Z,97513.75
2022-11-07T01:36:45.940Z,97508.13
2022-11-07T01:39:14.155Z,97501.75
2022-11-07T01:41:42.815Z,97508.66
2022-11-07T01:44:10.797Z,97503.38
2022-11-07T01:46:44.517Z,97506.72
2022-11-07T01:49:24.481Z,97505.97
2022-11-07T01:52:08.525Z,97514.66
2022-11-07T01:54:45.010Z,97508.72
2022-11-07T01:57:24.225Z,97512.63
2022-11-07T01:59:56.147Z,97514.84
2022-11-07T02:02:27.439Z,97514.84
2022-11-07T02:04:59.875Z,97512.34
2022-11-07T02:07:29.422Z,97511.53
2022-11-07T02:09:57.719Z,97499.97
2022-11-07T02:12:27.757Z,97503.94
2022-11-07T02:14:57.126Z,97516.94
2022-11-07T02:17:25.445Z,97503.09
2022-11-07T02:19:56.702Z,97500.06
2022-11-07T02:22:57.395Z,97513.09
2022-11-07T02:25:26.053Z,97499.69
2022-11-07T02:28:00.375Z,97508.56
2022-11-07T02:30:33.979Z,97509.44
2022-11-07T02:33:03.407Z,97508.63
2022-11-07T02:35:43.943Z,97506.75
2022-11-07T02:38:21.408Z,97507.16
2022-11-07T02:40:58.617Z,97501.88
2022-11-07T02:43:30.297Z,97502.06
2022-11-07T02:46:02.820Z,97495.50
2022-11-07T02:48:49.713Z,97498.63
2022-11-07T02:51:18.398Z,97489.75
2022-11-07T02:53:46.861Z,97492.44
2022-11-07T02:56:15.046Z,97490.16
2022-11-07T02:58:43.269Z,97493.91
2022-11-07T03:01:12.510Z,97491.88
2022-11-07T03:03:46.370Z,97488.38
2022-11-07T03:06:19.851Z,97490.75
2022-11-07T03:08:48.318Z,97488.06
2022-11-07T03:11:20.122Z,97491.69
2022-11-07T03:13:50.367Z,97495.38
2022-11-07T03:16:19.740Z,97500.38
2022-11-07T03:18:47.851Z,97505.50
2022-11-07T03:21:15.929Z,97508.88
2022-11-07T03:23:44.015Z,97511.31
2022-11-07T03:26:12.071Z,97504.50
2022-11-07T03:28:40.178Z,97507.78
2022-11-07T03:31:08.342Z,97509.22
2022-11-07T03:33:36.465Z,97514.41
2022-11-07T03:36:05.025Z,97514.00
2022-11-07T03:38:33.110Z,97509.09
2022-11-07T03:41:01.169Z,97514.28
2022-11-07T03:43:29.269Z,97511.41
2022-11-07T03:45:57.354Z,97515.59
2022-11-07T03:48:25.440Z,97512.53
2022-11-07T03:50:53.614Z,97510.50
2022-11-07T03:53:25.512Z,97518.53
2022-11-07T03:55:56.499Z,97527.22
2022-11-07T03:58:26.862Z,97530.72
2022-11-07T04:00:54.849Z,97529.50
2022-11-07T04:03:22.936Z,97538.16
2022-11-07T04:05:50.989Z,97533.47
2022-11-07T04:08:19.339Z,97536.97
2022-11-07T04:10:47.514Z,97530.41
2022-11-07T04:13:34.106Z,97538.25
2022-11-07T04:16:20.911Z,97544.44
2022-11-07T04:18:48.988Z,97547.69
2022-11-07T04:21:17.044Z,97549.94
2022-11-07T04:23:45.148Z,97557.97
2022-11-07T04:26:31.809Z,97558.59
2022-11-07T04:28:59.917Z,97557.59
2022-11-07T04:31:27.975Z,97558.25
2022-11-07T04:33:56.084Z,97558.03
2022-11-07T04:36:24.141Z,97554.53
2022-11-07T04:38:52.259Z,97563.38
2022-11-07T04:41:23.792Z,97567.28
2022-11-07T04:43:52.129Z,97558.41
2022-11-07T04:46:20.334Z,97560.47
2022-11-07T04:48:48.423Z,97563.31
2022-11-07T04:51:21.776Z,97567.59
2022-11-07T04:53:49.871Z,97573.69
2022-11-07T04:56:17.917Z,97578.94
2022-11-07T04:58:46.121Z,97571.47
2022-11-07T05:01:14.202Z,97564.38
2022-11-07T05:03:42.465Z,97565.41
2022-11-07T05:06:14.686Z,97578.13
2022-11-07T05:08:42.794Z,97574.44
2022-11-07T05:11:10.852Z,97570.66
2022-11-07T05:13:38.963Z,97576.66
2022-11-07T05:16:15.177Z,97581.19
2022-11-07T05:18:43.622Z,97575.19
2022-11-07T05:21:11.944Z,97581.94
2022-11-07T05:23:40.145Z,97582.47
2022-11-07T05:26:09.429Z,97585.53
2022-11-07T05:28:39.784Z,97583.22
2022-11-07T05:31:11.831Z,97583.41
2022-11-07T05:33:40.032Z,97590.78
2022-11-07T05:36:20.834Z,97587.66
2022-11-07T05:38:53.358Z,97580.84
2022-11-07T05:41:22.520Z,97580.53
2022-11-07T05:43:50.626Z,97583.03
2022-11-07T05:46:18.684Z,97585.25
2022-11-07T05:48:46.890Z,97585.00
2022-11-07T05:51:15.001Z,97590.88
2022-11-07T05:53:43.178Z,97594.13
2022-11-07T05:56:11.376Z,97587.66
2022-11-07T05:58:39.582Z,97586.44
2022-11-07T06:01:07.925Z,97591.78
2022-11-07T06:03:36.014Z,97593.66
2022-11-07T06:06:04.184Z,97595.66
2022-11-07T06:08:32.295Z,97596.16
2022-11-07T06:11:06.108Z,97598.72
2022-11-07T06:13:34.191Z,97588.13
2022-11-07T06:16:02.394Z,97597.34
2022-11-07T06:18:30.596Z,97599.13
2022-11-07T06:21:02.159Z,97597.44
2022-11-07T06:23:30.362Z,97597.44
2022-11-07T06:25:58.471Z,97605.28
2022-11-07T06:28:26.671Z,97598.91
2022-11-07T06:30:59.168Z,97596.44
2022-11-07T06:33:27.374Z,97599.94
2022-11-07T06:35:55.812Z,97603.44
2022-11-07T06:38:25.096Z,97611.47
2022-11-07T06:40:53.177Z,97613.31
2022-11-07T06:43:21.889Z,97602.44
2022-11-07T06:45:49.942Z,97603.91
2022-11-07T06:48:18.145Z,97614.03
2022-11-07T06:50:47.547Z,97611.75
2022-11-07T06:53:15.947Z,97608.91
2022-11-07T06:55:44.565Z,97613.03
2022-11-07T06:58:12.666Z,97614.03
2022-11-07T07:00:40.803Z,97621.59
2022-11-07T07:03:10.531Z,97624.97
2022-11-07T07:05:38.827Z,97623.63
2022-11-07T07:08:08.236Z,97631.13
2022-11-07T07:10:40.848Z,97637.50
2022-11-07T07:13:09.768Z,97629.56
2022-11-07T07:15:50.360Z,97634.38
2022-11-07T07:18:20.147Z,97640.00
2022-11-07T07:20:50.337Z,97647.00
2022-11-07T07:23:20.567Z,97638.50
2022-11-07T07:25:49.454Z,97647.19
2022-11-07T07:28:17.609Z,97650.91
2022-11-07T07:30:51.594Z,97655.44
2022-11-07T07:33:21.631Z,97655.22
2022-11-07T07:35:49.750Z,97644.34
2022-11-07T07:38:17.977Z,97646.66
2022-11-07T07:40:47.872Z,97645.44
2022-11-07T07:43:16.488Z,97651.09
2022-11-07T07:45:44.872Z,97643.69
2022-11-07T07:48:13.043Z,97640.47
2022-11-07T07:50:41.129Z,97642.97
2022-11-07T07:53:09.540Z,97641.31
2022-11-07T07:55:37.679Z,97640.56
2022-11-07T07:58:06.255Z,97643.16
2022-11-07T08:00:34.931Z,97638.50
2022-11-07T08:03:10.445Z,97641.50
2022-11-07T08:05:39.700Z,97645.47
2022-11-07T08:08:09.223Z,97644.91
2022-11-07T08:10:42.443Z,97649.25
2022-11-07T08:13:11.185Z,97651.38
2022-11-07T08:15:39.229Z,97656.16
2022-11-07T08:18:07.463Z,97656.44
2022-11-07T08:20:35.513Z,97662.69
2022-11-07T08:23:12.869Z,97659.47
2022-11-07T08:25:58.835Z,97651.22
2022-11-07T08:28:30.977Z,97654.16
2022-11-07T08:31:10.355Z,97654.63
2022-11-07T08:33:39.069Z,97653.41
2022-11-07T08:36:08.288Z,97648.22
2022-11-07T08:38:36.998Z,97652.84
2022-11-07T08:41:05.796Z,97659.50
2022-11-07T08:43:33.976Z,97656.41
2022-11-07T08:46:02.090Z,97659.56
2022-11-07T08:48:30.296Z,97659.00
2022-11-07T08:50:59.464Z,97653.06
2022-11-07T08:53:28.148Z,97651.19
2022-11-07T08:56:10.469Z,97661.38
2022-11-07T08:58:38.940Z,97654.59
2022-11-07T09:01:10.532Z,97657.28
2022-11-07T09:03:52.907Z,97653.38
2022-11-07T09:06:24.885Z,97657.97
2022-11-07T09:08:53.080Z,97659.47
2022-11-07T09:11:22.277Z,97667.88
2022-11-07T09:13:50.446Z,97670.19
2022-11-07T09:16:19.129Z,97674.50
2022-11-07T09:18:49.640Z,97672.09
2022-11-07T09:21:22.369Z,97668.38
2022-11-07T09:23:52.165Z,97669.88
2022-11-07T09:26:20.700Z,97672.91
2022-11-07T09:28:52.379Z,97679.97
2022-11-07T09:31:22.507Z,97672.41
2022-11-07T09:33:50.609Z,97683.22
2022-11-07T09:36:18.787Z,97681.56
2022-11-07T09:38:47.253Z,97680.47
2022-11-07T09:41:39.432Z,97686.66
2022-11-07T09:44:23.463Z,97683.22
2022-11-07T09:47:08.141Z,97685.97
2022-11-07T09:50:00.799Z,97677.34
2022-11-07T09:52:35.963Z,97671.97
2022-11-07T09:55:26.518Z,97671.50
2022-11-07T09:58:00.929Z,97667.94
2022-11-07T10:00:32.250Z,97675.00
2022-11-07T10:03:04.652Z,97676.28
2022-11-07T10:06:03.336Z,97671.75
2022-11-07T10:09:04.925Z,97676.31
2022-11-07T10:11:50.981Z,97682.78
2022-11-07T10:14:55.334Z,97676.44
2022-11-07T10:17:44.388Z,97681.03
2022-11-07T10:20:47.630Z,97679.97
2022-11-07T10:23:36.232Z,97670.28
2022-11-07T10:26:16.196Z,97676.13
2022-11-07T10:29:17.758Z,97673.25
2022-11-07T10:32:30.122Z,97672.88
2022-11-07T10:35:13.082Z,97681.59
2022-11-07T10:37:41.192Z,97674.16
2022-11-07T10:40:21.850Z,97668.16
2022-11-07T10:42:51.370Z,97665.28
2022-11-07T10:45:19.724Z,97665.28
2022-11-07T10:48:05.576Z,97654.53
2022-11-07T10:50:33.979Z,97649.00
2022-11-07T10:53:09.991Z,97658.13
2022-11-07T10:55:48.026Z,97656.91
2022-11-07T10:58:30.265Z,97646.97
2022-11-07T11:01:08.317Z,97650.31
2022-11-07T11:03:45.414Z,97645.53
2022-11-07T11:06:19.714Z,97654.47
2022-11-07T11:08:50.800Z,97653.25
2022-11-07T11:11:21.882Z,97654.50
2022-11-07T11:14:00.666Z,97651.63
2022-11-07T11:16:33.882Z,97655.13
2022-11-07T11:19:03.525Z,97651.81
2022-11-07T11:21:44.337Z,97649.75
2022-11-07T11:24:34.371Z,97654.50
2022-11-07T11:27:17.840Z,97648.34
2022-11-07T11:30:07.515Z,97650.41
2022-11-07T11:32:48.660Z,97644.56
2022-11-07T11:35:41.618Z,97646.84
2022-11-07T11:38:21.905Z,97656.41
2022-11-07T11:41:04.728Z,97651.03
2022-11-07T11:43:51.696Z,97647.09
2022-11-07T11:46:58.279Z,97654.75
2022-11-07T11:49:35.864Z,97653.50
2022-11-07T11:52:24.477Z,97658.88
2022-11-07T11:54:56.242Z,97656.63
2022-11-07T11:57:41.505Z,97651.81
2022-11-07T12:00:22.886Z,97659.84
2022-11-07T12:03:34.555Z,97648.22
2022-11-07T12:06:20.273Z,97655.97
2022-11-07T12:09:18.152Z,97643.13
2022-11-07T12:12:30.346Z,97637.16
2022-11-07T12:15:37.415Z,97625.59
2022-11-07T12:18:19.296Z,97630.16
2022-11-07T12:21:12.470Z,97617.09
2022-11-07T12:23:46.319Z,97626.19
2022-11-07T12:26:20.396Z,97630.34
2022-11-07T12:29:24.226Z,97633.69
2022-11-07T12:32:38.751Z,97629.72
2022-11-07T12:35:40.673Z,97625.16
2022-11-07T12:38:57.868Z,97624.31
2022-11-07T12:42:08.208Z,97629.50
2022-11-07T12:44:48.019Z,97640.69
2022-11-07T12:47:37.693Z,97631.97
2022-11-07T12:50:32.888Z,97625.50
2022-11-07T12:53:02.891Z,97621.56
2022-11-07T12:55:42.272Z,97632.53
2022-11-07T12:58:25.822Z,97626.28
2022-11-07T13:00:54.526Z,97622.19
2022-11-07T13:03:44.793Z,97625.47
2022-11-07T13:06:36.983Z,97615.72
2022-11-07T13:09:33.761Z,97626.66
2022-11-07T13:12:26.080Z,97624.16
2022-11-07T13:14:54.750Z,97624.00
2022-11-07T13:17:27.812Z,97628.53
2022-11-07T13:20:05.800Z,97634.81
2022-11-07T13:22:37.135Z,97620.69
2022-11-07T13:25:17.617Z,97615.91
2022-11-07T13:27:57.894Z,97618.81
2022-11-07T13:30:35.465Z,97612.41
2022-11-07T13:33:05.706Z,97607.47
2022-11-07T13:35:39.189Z,97606.03
2022-11-07T13:38:26.095Z,97609.78
2022-11-07T13:41:04.746Z,97611.63
2022-11-07T13:43:58.992Z,97608.72
2022-11-07T13:46:39.300Z,97610.16
2022-11-07T13:49:26.715Z,97616.81
2022-11-07T13:52:02.844Z,97610.41
2022-11-07T13:54:57.314Z,97608.56
2022-11-07T13:57:42.827Z,97605.00
2022-11-07T14:00:15.510Z,97600.44
2022-11-07T14:02:56.353Z,97602.47
2022-11-07T14:05:36.800Z,97591.75
2022-11-07T14:08:39.815Z,97596.72
2022-11-07T14:11:21.814Z,97607.09
2022-11-07T14:13:54.217Z,97607.91
2022-11-07T14:16:32.738Z,97615.38
2022-11-07T14:19:07.311Z,97612.88
2022-11-07T14:21:37.440Z,97613.53
2022-11-07T14:24:25.088Z,97620.81
2022-11-07T14:27:03.939Z,97623.66
2022-11-07T14:29:32.747Z,97627.63
2022-11-07T14:32:06.953Z,97631.34
2022-11-07T14:34:36.588Z,97628.66
2022-11-07T14:37:07.910Z,97621.81
2022-11-07T14:39:39.114Z,97620.81
2022-11-07T14:42:08.394Z,97623.69
2022-11-07T14:44:54.044Z,97621.84
2022-11-07T14:47:33.023Z,97627.25
2022-11-07T14:50:02.149Z,97626.81
2022-11-07T14:52:39.975Z,97620.63
2022-11-07T14:55:29.408Z,97623.53
2022-11-07T14:58:03.986Z,97626.81
2022-11-07T15:00:33.263Z,97628.09
2022-11-07T15:03:02.431Z,97633.47
2022-11-07T15:05:43.227Z,97630.38
2022-11-07T15:08:31.832Z,97628.91
2022-11-07T15:11:22.356Z,97624.97
2022-11-07T15:13:51.387Z,97627.25
2022-11-07T15:16:22.841Z,97628.31
2022-11-07T15:19:00.042Z,97616.47
2022-11-07T15:21:28.608Z,97620.22
2022-11-07T15:23:58.249Z,97625.41
2022-11-07T15:26:33.186Z,97626.44
2022-11-07T15:29:22.005Z,97629.94
2022-11-07T15:31:50.115Z,97632.44
2022-11-07T15:34:33.711Z,97629.31
2022-11-07T15:37:12.544Z,97632.25
2022-11-07T15:39:40.611Z,97634.53
2022-11-07T15:42:08.707Z,97629.94
2022-11-07T15:44:36.783Z,97638.81
2022-11-07T15:47:06.791Z,97632.81
2022-11-07T15:49:35.580Z,97635.53
2022-11-07T15:52:03.785Z,97627.63
2022-11-07T15:54:31.865Z,97629.72
2022-11-07T15:57:04.163Z,97629.09
2022-11-07T15:59:37.510Z,97629.53
2022-11-07T16:02:11.388Z,97634.50
2022-11-07T16:04:39.901Z,97622.28
2022-11-07T16:07:20.486Z,97618.31
2022-11-07T16:09:49.000Z,97617.09
2022-11-07T16:12:19.407Z,97614.41
2022-11-07T16:14:47.493Z,97618.94
2022-11-07T16:17:18.234Z,97621.22
2022-11-07T16:19:46.901Z,97618.94
2022-11-07T16:22:16.554Z,97616.84
2022-11-07T16:24:44.615Z,97627.22
2022-11-07T16:27:18.112Z,97623.69
2022-11-07T16:29:46.658Z,97618.06
2022-11-07T16:32:18.527Z,97622.19
2022-11-07T16:34:47.761Z,97632.13
2022-11-07T16:37:15.834Z,97630.47
2022-11-07T16:39:44.536Z,97633.97
2022-11-07T16:42:16.375Z,97636.66
2022-11-07T16:44:44.615Z,97642.63
2022-11-07T16:47:16.682Z,97640.34
2022-11-07T16:49:45.494Z,97638.41
2022-11-07T16:52:20.539Z,97641.09
2022-11-07T16:54:48.845Z,97646.84
2022-11-07T16:57:18.746Z,97637.75
2022-11-07T16:59:47.183Z,97643.28
2022-11-07T17:02:24.818Z,97645.13
2022-11-07T17:04:54.382Z,97638.88
2022-11-07T17:07:24.037Z,97646.50
2022-11-07T17:09:52.337Z,97644.00
2022-11-07T17:12:23.662Z,97647.91
2022-11-07T17:14:52.976Z,97647.69
2022-11-07T17:17:21.387Z,97639.81
2022-11-07T17:19:49.789Z,97648.28
2022-11-07T17:22:18.163Z,97649.91
2022-11-07T17:24:46.376Z,97646.97
2022-11-07T17:27:23.925Z,97642.19
2022-11-07T17:29:53.980Z,97639.50
2022-11-07T17:32:22.242Z,97641.56
2022-11-07T17:35:10.922Z,97648.56
2022-11-07T17:37:39.896Z,97655.63
2022-11-07T17:40:14.497Z,97652.94
2022-11-07T17:42:42.649Z,97656.44
2022-11-07T17:45:11.931Z,97653.94
2022-11-07T17:47:40.504Z,97648.56
2022-11-07T17:50:15.902Z,97657.06
2022-11-07T17:52:43.992Z,97659.56
2022-11-07T17:55:12.421Z,97657.50
2022-11-07T17:57:40.983Z,97659.38
2022-11-07T18:00:17.963Z,97652.78
2022-11-07T18:02:48.542Z,97664.75
2022-11-07T18:05:20.354Z,97657.91
2022-11-07T18:07:48.449Z,97653.13
2022-11-07T18:10:17.500Z,97655.81
2022-11-07T18:12:45.574Z,97649.41
2022-11-07T18:15:13.781Z,97650.84
2022-11-07T18:17:42.333Z,97651.84
2022-11-07T18:20:11.126Z,97647.53
2022-11-07T18:22:39.333Z,97645.03
2022-11-07T18:25:08.741Z,97653.09
2022-11-07T18:27:37.306Z,97647.72
2022-11-07T18:30:07.191Z,97638.03
2022-11-07T18:32:36.791Z,97648.19
2022-11-07T18:35:06.417Z,97650.50
2022-11-07T18:37:34.914Z,97645.13
2022-11-07T18:40:03.108Z,97641.00
2022-11-07T18:42:31.309Z,97646.59
2022-11-07T18:44:59.390Z,97651.59
2022-11-07T18:47:28.805Z,97646.03
2022-11-07T18:49:57.593Z,97645.84
2022-11-07T18:52:26.053Z,97648.31
2022-11-07T18:54:54.365Z,97644.16
2022-11-07T18:57:22.459Z,97643.16
2022-11-07T18:59:50.645Z,97633.84
2022-11-07T19:02:18.765Z,97644.19
2022-11-07T19:04:46.944Z,97639.66
2022-11-07T19:07:15.011Z,97634.09
2022-11-07T19:09:43.093Z,97632.00
2022-11-07T19:12:11.189Z,97635.91
2022-11-07T19:14:39.379Z,97643.16
2022-11-07T19:17:07.476Z,97640.22
2022-11-07T19:19:36.503Z,97643.09
2022-11-07T19:22:05.785Z,97646.41
2022-11-07T19:24:34.723Z,97643.91
2022-11-07T19:27:02.806Z,97646.81
2022-11-07T19:29:30.953Z,97637.09
2022-11-07T19:31:58.966Z,97636.47
2022-11-07T19:34:27.180Z,97635.66
2022-11-07T19:36:55.255Z,97634.59
2022-11-07T19:39:23.442Z,97637.28
2022-11-07T19:41:51.535Z,97635.44
2022-11-07T19:44:19.734Z,97629.63
2022-11-07T19:46:48.064Z,97636.22
2022-11-07T19:49:16.134Z,97634.94
2022-11-07T19:51:44.216Z,97633.50
2022-11-07T19:54:12.656Z,97635.13
2022-11-07T19:56:40.757Z,97635.50
2022-11-07T19:59:10.261Z,97641.47
2022-11-07T20:01:39.543Z,97630.28
2022-11-07T20:04:08.915Z,97634.56
2022-11-07T20:06:39.083Z,97641.75
2022-11-07T20:09:09.550Z,97640.91
2022-11-07T20:11:38.142Z,97644.19
2022-11-07T20:14:06.556Z,97644.75
2022-11-07T20:16:37.398Z,97640.97
2022-11-07T20:19:06.083Z,97646.72
2022-11-07T20:21:34.673Z,97651.41
2022-11-07T20:24:05.501Z,97648.91
2022-11-07T20:26:33.577Z,97653.44
2022-11-07T20:29:02.132Z,97649.28
2022-11-07T20:31:33.829Z,97644.97
2022-11-07T20:34:05.267Z,97649.47
2022-11-07T20:36:34.658Z,97647.38
2022-11-07T20:39:03.821Z,97650.63
2022-11-07T20:41:32.755Z,97655.56
2022-11-07T20:44:07.546Z,97654.69
2022-11-07T20:46:39.227Z,97649.72
2022-11-07T20:49:12.119Z,97653.25
2022-11-07T20:51:41.273Z,97644.19
2022-11-07T20:54:16.316Z,97640.22
2022-11-07T20:56:44.411Z,97646.97
2022-11-07T20:59:12.972Z,97652.91
2022-11-07T21:01:41.245Z,97656.81
2022-11-07T21:04:14.066Z,97660.69
2022-11-07T21:06:42.727Z,97658.22
2022-11-07T21:09:11.294Z,97653.88
2022-11-07T21:11:39.625Z,97667.28
2022-11-07T21:14:08.062Z,97662.31
2022-11-07T21:16:36.380Z,97651.94
2022-11-07T21:19:05.623Z,97656.47
2022-11-07T21:21:33.822Z,97651.50
2022-11-07T21:24:02.676Z,97646.78
2022-11-07T21:26:35.688Z,97646.59
2022-11-07T21:29:06.881Z,97657.13
2022-11-07T21:31:37.124Z,97650.28
2022-11-07T21:34:09.273Z,97649.44
2022-11-07T21:36:37.739Z,97648.81
2022-11-07T21:39:07.604Z,97642.16
2022-11-07T21:41:36.289Z,97641.53
2022-11-07T21:44:04.483Z,97643.28
2022-11-07T21:46:34.502Z,97635.19
2022-11-07T21:49:04.985Z,97632.41
2022-11-07T21:51:34.749Z,97628.63
2022-11-07T21:54:04.735Z,97629.84
2022-11-07T21:56:37.017Z,97633.91
2022-11-07T21:59:09.900Z,97634.66
2022-11-07T22:01:39.618Z,97624.94
2022-11-07T22:04:12.520Z,97618.69
2022-11-07T22:06:44.599Z,97621.72
2022-11-07T22:09:18.322Z,97615.53
2022-11-07T22:11:47.239Z,97613.03
2022-11-07T22:14:19.167Z,97611.75
2022-11-07T22:16:48.672Z,97601.69
2022-11-07T22:19:18.341Z,97594.66
2022-11-07T22:21:46.519Z,97589.50
2022-11-07T22:24:14.601Z,97596.03
2022-11-07T22:26:43.180Z,97599.94
2022-11-07T22:29:11.245Z,97592.09
2022-11-07T22:31:39.346Z,97592.91
2022-11-07T22:34:07.412Z,97592.44
2022-11-07T22:36:35.633Z,97587.66
2022-11-07T22:39:03.830Z,97580.44
2022-11-07T22:41:31.912Z,97583.34
2022-11-07T22:44:00.110Z,97581.66
2022-11-07T22:46:31.078Z,97584.69
2022-11-07T22:49:00.141Z,97580.56
2022-11-07T22:51:34.560Z,97584.06
2022-11-07T22:54:06.835Z,97584.50
2022-11-07T22:56:36.604Z,97581.00
2022-11-07T22:59:05.996Z,97581.59
2022-11-07T23:01:38.482Z,97581.00
2022-11-07T23:04:08.641Z,97580.19
2022-11-07T23:06:36.981Z,97585.38
2022-11-07T23:09:05.645Z,97585.25
2022-11-07T23:11:51.341Z,97585.09
2022-11-07T23:14:21.744Z,97574.44
2022-11-07T23:16:53.186Z,97574.09
2022-11-07T23:19:24.375Z,97570.59
2022-11-07T23:21:54.997Z,97565.59
2022-11-07T23:24:23.663Z,97568.28
2022-11-07T23:26:51.874Z,97571.22
2022-11-07T23:29:24.196Z,97571.41
2022-11-07T23:31:53.068Z,97565.59
2022-11-07T23:34:22.361Z,97565.13
2022-11-07T23:36:51.889Z,97568.19
2022-11-07T23:39:22.859Z,97564.03
2022-11-07T23:41:51.064Z,97563.03
2022-11-07T23:44:19.119Z,97559.53
2022-11-07T23:47:06.420Z,97557.84
2022-11-07T23:49:54.406Z,97560.53
2022-11-07T23:52:22.628Z,97559.06
2022-11-07T23:55:09.181Z,97560.63
2022-11-07T23:57:57.692Z,97558.13
